sensor_id;sensor_type;location;lat;lon;timestamp;temperature;humidity
8888;DHT22;4480;52.370;9.748;2024-01-15T00:00:58;1.30;99.90
8888;DHT22;4480;52.370;9.748;2024-01-15T00:03:25;1.30;99.90
8888;DHT22;4480;52.370;9.748;2024-01-15T00:05:52;1.30;99.90
8888;DHT22;4480;52.370;9.748;2024-01-15T00:08:20;1.30;99.90
8888;DHT22;4480;52.370;9.748;2024-01-15T00:10:47;1.40;99.90
8888;DHT22;4480;52.370;9.748;2024-01-15T00:13:13;1.40;99.90
8888;DHT22;4480;52.370;9.748;2024-01-15T00:15:40;1.40;99.90
8888;DHT22;4480;52.370;9.748;2024-01-15T00:18:07;1.50;99.90
8888;DHT22;4480;52.370;9.748;2024-01-15T00:20:34;1.50;99.90
8888;DHT22;4480;52.370;9.748;2024-01-15T00:23:00;1.50;99.90
8888;DHT22;4480;52.370;9.748;2024-01-15T00:25:29;1.50;99.90
8888;DHT22;4480;52.370;9.748;2024-01-15T00:27:55;1.50;99.90
8888;DHT22;4480;52.370;9.748;2024-01-15T00:30:22;1.50;99.90
8888;DHT22;4480;52.370;9.748;2024-01-15T00:32:49;1.40;99.90
8888;DHT22;4480;52.370;9.748;2024-01-15T00:35:16;1.40;99.90
8888;DHT22;4480;52.370;9.748;2024-01-15T00:37:42;1.40;99.90
8888;DHT22;4480;52.370;9.748;2024-01-15T00:40:09;1.40;99.90
8888;DHT22;4480;52.370;9.748;2024-01-15T00:42:37;1.50;99.90
8888;DHT22;4480;52.370;9.748;2024-01-15T00:45:04;1.50;99.90
8888;DHT22;4480;52.370;9.748;2024-01-15T00:47:33;1.40;99.90
8888;DHT22;4480;52.370;9.748;2024-01-15T00:50:00;1.40;99.90
8888;DHT22;4480;52.370;9.748;2024-01-15T00:52:26;1.30;99.90
8888;DHT22;4480;52.370;9.748;2024-01-15T00:54:53;1.30;99.90
8888;DHT22;4480;52.370;9.748;2024-01-15T00:57:20;1.20;99.90
8888;DHT22;4480;52.370;9.748;2024-01-15T00:59:48;1.30;99.90
8888;DHT22;4480;52.370;9.748;2024-01-15T01:02:15;1.30;99.90
8888;DHT22;4480;52.370;9.748;2024-01-15T01:04:41;1.30;99.90
8888;DHT22;4480;52.370;9.748;2024-01-15T01:07:08;1.30;99.90
8888;DHT22;4480;52.370;9.748;2024-01-15T01:09:35;1.30;99.90
8888;DHT22;4480;52.370;9.748;2024-01-15T01:12:02;1.30;99.90
8888;DHT22;4480;52.370;9.748;2024-01-15T01:14:28;1.30;99.90
8888;DHT22;4480;52.370;9.748;2024-01-15T01:16:57;1.30;99.90
8888;DHT22;4480;52.370;9.748;2024-01-15T01:19:23;1.30;99.90
8888;DHT22;4480;52.370;9.748;2024-01-15T01:21:50;1.30;99.90
8888;DHT22;4480;52.370;9.748;2024-01-15T01:24:17;1.30;99.90
8888;DHT22;4480;52.370;9.748;2024-01-15T01:26:44;1.30;99.90
8888;DHT22;4480;52.370;9.748;2024-01-15T01:29:12;1.20;99.90
8888;DHT22;4480;52.370;9.748;2024-01-15T01:31:42;1.20;99.90
8888;DHT22;4480;52.370;9.748;2024-01-15T01:34:13;1.20;99.90
8888;DHT22;4480;52.370;9.748;2024-01-15T01:36:40;1.30;99.90
8888;DHT22;4480;52.370;9.748;2024-01-15T01:39:07;1.30;99.90
8888;DHT22;4480;52.370;9.748;2024-01-15T01:41:34;1.30;99.90
8888;DHT22;4480;52.370;9.748;2024-01-15T01:44:01;1.30;99.90
8888;DHT22;4480;52.370;9.748;2024-01-15T01:46:28;1.40;99.90
8888;DHT22;4480;52.370;9.748;2024-01-15T01:48:55;1.30;99.90
8888;DHT22;4480;52.370;9.748;2024-01-15T01:51:24;1.40;99.90
8888;DHT22;4480;52.370;9.748;2024-01-15T01:53:51;1.40;99.90
8888;DHT22;4480;52.370;9.748;2024-01-15T01:56:18;1.40;99.90
8888;DHT22;4480;52.370;9.748;2024-01-15T01:58:46;1.40;99.90
8888;DHT22;4480;52.370;9.748;2024-01-15T02:01:15;1.50;99.90
8888;DHT22;4480;52.370;9.748;2024-01-15T02:03:43;1.50;99.90
8888;DHT22;4480;52.370;9.748;2024-01-15T02:06:10;1.50;99.90
8888;DHT22;4480;52.370;9.748;2024-01-15T02:08:38;1.60;99.90
8888;DHT22;4480;52.370;9.748;2024-01-15T02:11:05;1.60;99.90
8888;DHT22;4480;52.370;9.748;2024-01-15T02:13:32;1.60;99.90
8888;DHT22;4480;52.370;9.748;2024-01-15T02:15:59;1.70;99.90
8888;DHT22;4480;52.370;9.748;2024-01-15T02:18:26;1.70;99.90
8888;DHT22;4480;52.370;9.748;2024-01-15T02:20:53;1.70;99.90
8888;DHT22;4480;52.370;9.748;2024-01-15T02:23:21;1.70;99.90
8888;DHT22;4480;52.370;9.748;2024-01-15T02:25:47;1.80;99.90
8888;DHT22;4480;52.370;9.748;2024-01-15T02:28:15;1.80;99.90
8888;DHT22;4480;52.370;9.748;2024-01-15T02:30:43;1.80;99.90
8888;DHT22;4480;52.370;9.748;2024-01-15T02:33:11;1.90;99.90
8888;DHT22;4480;52.370;9.748;2024-01-15T02:35:38;1.90;99.90
8888;DHT22;4480;52.370;9.748;2024-01-15T02:38:05;1.90;99.90
8888;DHT22;4480;52.370;9.748;2024-01-15T02:40:33;1.90;99.90
8888;DHT22;4480;52.370;9.748;2024-01-15T02:43:00;1.90;99.90
8888;DHT22;4480;52.370;9.748;2024-01-15T02:45:27;1.90;99.90
8888;DHT22;4480;52.370;9.748;2024-01-15T02:47:54;1.90;99.90
8888;DHT22;4480;52.370;9.748;2024-01-15T02:50:21;1.90;99.90
8888;DHT22;4480;52.370;9.748;2024-01-15T02:52:47;1.90;99.90
8888;DHT22;4480;52.370;9.748;2024-01-15T02:55:14;1.90;99.90
8888;DHT22;4480;52.370;9.748;2024-01-15T02:57:42;1.90;99.90
8888;DHT22;4480;52.370;9.748;2024-01-15T03:00:10;1.90;99.90
8888;DHT22;4480;52.370;9.748;2024-01-15T03:02:38;1.90;99.90
8888;DHT22;4480;52.370;9.748;2024-01-15T03:05:06;1.90;99.90
8888;DHT22;4480;52.370;9.748;2024-01-15T03:07:33;1.90;99.90
8888;DHT22;4480;52.370;9.748;2024-01-15T03:10:00;1.90;99.90
8888;DHT22;4480;52.370;9.748;2024-01-15T03:12:27;1.90;99.90
8888;DHT22;4480;52.370;9.748;2024-01-15T03:14:55;1.90;99.90
8888;DHT22;4480;52.370;9.748;2024-01-15T03:17:22;1.90;99.90
8888;DHT22;4480;52.370;9.748;2024-01-15T03:19:48;1.90;99.90
8888;DHT22;4480;52.370;9.748;2024-01-15T03:22:16;1.90;99.90
8888;DHT22;4480;52.370;9.748;2024-01-15T03:24:43;1.90;99.90
8888;DHT22;4480;52.370;9.748;2024-01-15T03:27:10;1.90;99.90
8888;DHT22;4480;52.370;9.748;2024-01-15T03:29:36;1.90;99.90
8888;DHT22;4480;52.370;9.748;2024-01-15T03:32:05;1.90;99.90
8888;DHT22;4480;52.370;9.748;2024-01-15T03:34:32;1.90;99.90
8888;DHT22;4480;52.370;9.748;2024-01-15T03:36:59;2.00;99.90
8888;DHT22;4480;52.370;9.748;2024-01-15T03:39:25;2.00;99.90
8888;DHT22;4480;52.370;9.748;2024-01-15T03:41:52;2.00;99.90
8888;DHT22;4480;52.370;9.748;2024-01-15T03:44:19;2.00;99.90
8888;DHT22;4480;52.370;9.748;2024-01-15T03:46:46;2.00;99.90
8888;DHT22;4480;52.370;9.748;2024-01-15T03:49:14;2.00;99.90
8888;DHT22;4480;52.370;9.748;2024-01-15T03:51:40;2.10;99.90
8888;DHT22;4480;52.370;9.748;2024-01-15T03:54:07;2.10;99.90
8888;DHT22;4480;52.370;9.748;2024-01-15T03:56:34;2.10;99.90
8888;DHT22;4480;52.370;9.748;2024-01-15T03:59:01;2.10;99.90
8888;DHT22;4480;52.370;9.748;2024-01-15T04:01:27;2.10;99.90
8888;DHT22;4480;52.370;9.748;2024-01-15T04:03:55;2.20;99.90
8888;DHT22;4480;52.370;9.748;2024-01-15T04:06:23;2.20;99.90
8888;DHT22;4480;52.370;9.748;2024-01-15T04:08:49;2.20;99.90
8888;DHT22;4480;52.370;9.748;2024-01-15T04:12:56;2.20;99.90
8888;DHT22;4480;52.370;9.748;2024-01-15T04:15:25;2.30;99.90
8888;DHT22;4480;52.370;9.748;2024-01-15T04:17:52;2.30;99.90
8888;DHT22;4480;52.370;9.748;2024-01-15T04:20:18;2.30;99.90
8888;DHT22;4480;52.370;9.748;2024-01-15T04:22:45;2.30;99.90
8888;DHT22;4480;52.370;9.748;2024-01-15T04:25:12;2.30;99.90
8888;DHT22;4480;52.370;9.748;2024-01-15T04:27:39;2.30;99.90
8888;DHT22;4480;52.370;9.748;2024-01-15T04:30:08;2.30;99.90
8888;DHT22;4480;52.370;9.748;2024-01-15T04:32:35;2.30;99.90
8888;DHT22;4480;52.370;9.748;2024-01-15T04:35:01;2.30;99.90
8888;DHT22;4480;52.370;9.748;2024-01-15T04:37:28;2.30;99.90
8888;DHT22;4480;52.370;9.748;2024-01-15T04:39:55;2.30;99.90
8888;DHT22;4480;52.370;9.748;2024-01-15T04:42:23;2.30;99.90
8888;DHT22;4480;52.370;9.748;2024-01-15T04:44:49;2.30;99.90
8888;DHT22;4480;52.370;9.748;2024-01-15T04:47:18;2.20;99.90
8888;DHT22;4480;52.370;9.748;2024-01-15T04:49:44;2.20;99.90
8888;DHT22;4480;52.370;9.748;2024-01-15T04:52:11;2.20;99.90
8888;DHT22;4480;52.370;9.748;2024-01-15T04:54:38;2.20;99.90
8888;DHT22;4480;52.370;9.748;2024-01-15T04:57:05;2.20;99.90
8888;DHT22;4480;52.370;9.748;2024-01-15T04:59:31;2.30;99.90
8888;DHT22;4480;52.370;9.748;2024-01-15T05:01:58;2.30;99.90
8888;DHT22;4480;52.370;9.748;2024-01-15T05:04:26;2.30;99.90
8888;DHT22;4480;52.370;9.748;2024-01-15T05:06:53;2.30;99.90
8888;DHT22;4480;52.370;9.748;2024-01-15T05:09:20;2.20;99.90
8888;DHT22;4480;52.370;9.748;2024-01-15T05:11:47;2.10;99.90
8888;DHT22;4480;52.370;9.748;2024-01-15T05:14:13;2.00;99.90
8888;DHT22;4480;52.370;9.748;2024-01-15T05:16:44;1.80;99.90
8888;DHT22;4480;52.370;9.748;2024-01-15T05:19:12;1.80;99.90
8888;DHT22;4480;52.370;9.748;2024-01-15T05:21:40;1.80;99.90
8888;DHT22;4480;52.370;9.748;2024-01-15T05:24:08;1.80;99.90
8888;DHT22;4480;52.370;9.748;2024-01-15T05:26:34;1.80;99.90
8888;DHT22;4480;52.370;9.748;2024-01-15T05:29:01;1.80;99.90
8888;DHT22;4480;52.370;9.748;2024-01-15T05:31:28;1.80;99.90
8888;DHT22;4480;52.370;9.748;2024-01-15T05:33:55;1.80;99.90
8888;DHT22;4480;52.370;9.748;2024-01-15T05:36:22;1.80;99.90
8888;DHT22;4480;52.370;9.748;2024-01-15T05:38:50;1.80;99.90
8888;DHT22;4480;52.370;9.748;2024-01-15T05:41:16;1.80;99.90
8888;DHT22;4480;52.370;9.748;2024-01-15T05:43:43;1.80;99.90
8888;DHT22;4480;52.370;9.748;2024-01-15T05:46:10;1.80;99.90
8888;DHT22;4480;52.370;9.748;2024-01-15T05:48:37;1.80;99.90
8888;DHT22;4480;52.370;9.748;2024-01-15T05:51:03;1.80;99.90
8888;DHT22;4480;52.370;9.748;2024-01-15T05:53:30;1.90;99.90
8888;DHT22;4480;52.370;9.748;2024-01-15T05:55:58;1.90;99.90
8888;DHT22;4480;52.370;9.748;2024-01-15T05:58:26;1.90;99.90
8888;DHT22;4480;52.370;9.748;2024-01-15T06:00:53;1.90;99.90
8888;DHT22;4480;52.370;9.748;2024-01-15T06:03:20;2.00;99.90
8888;DHT22;4480;52.370;9.748;2024-01-15T06:05:46;2.00;99.90
8888;DHT22;4480;52.370;9.748;2024-01-15T06:08:13;2.00;99.90
8888;DHT22;4480;52.370;9.748;2024-01-15T06:10:41;2.00;99.90
8888;DHT22;4480;52.370;9.748;2024-01-15T06:13:10;1.90;99.90
8888;DHT22;4480;52.370;9.748;2024-01-15T06:15:37;1.90;99.90
8888;DHT22;4480;52.370;9.748;2024-01-15T06:18:04;1.90;99.90
8888;DHT22;4480;52.370;9.748;2024-01-15T06:20:31;1.90;99.90
8888;DHT22;4480;52.370;9.748;2024-01-15T06:22:58;1.90;99.90
8888;DHT22;4480;52.370;9.748;2024-01-15T06:25:24;1.90;99.90
8888;DHT22;4480;52.370;9.748;2024-01-15T06:27:51;1.90;99.90
8888;DHT22;4480;52.370;9.748;2024-01-15T06:30:19;1.90;99.90
8888;DHT22;4480;52.370;9.748;2024-01-15T06:32:46;1.80;99.90
8888;DHT22;4480;52.370;9.748;2024-01-15T06:35:13;1.80;99.90
8888;DHT22;4480;52.370;9.748;2024-01-15T06:37:40;1.70;99.90
8888;DHT22;4480;52.370;9.748;2024-01-15T06:40:08;1.70;99.90
8888;DHT22;4480;52.370;9.748;2024-01-15T06:42:35;1.60;99.90
8888;DHT22;4480;52.370;9.748;2024-01-15T06:45:02;1.60;99.90
8888;DHT22;4480;52.370;9.748;2024-01-15T06:47:30;1.70;99.90
8888;DHT22;4480;52.370;9.748;2024-01-15T06:49:58;1.70;99.90
8888;DHT22;4480;52.370;9.748;2024-01-15T06:52:24;1.70;99.90
8888;DHT22;4480;52.370;9.748;2024-01-15T06:54:51;1.70;99.90
8888;DHT22;4480;52.370;9.748;2024-01-15T06:57:18;1.70;99.90
8888;DHT22;4480;52.370;9.748;2024-01-15T06:59:46;1.80;99.90
8888;DHT22;4480;52.370;9.748;2024-01-15T07:02:13;1.80;99.90
8888;DHT22;4480;52.370;9.748;2024-01-15T07:04:41;1.90;99.90
8888;DHT22;4480;52.370;9.748;2024-01-15T07:07:08;1.90;99.90
8888;DHT22;4480;52.370;9.748;2024-01-15T07:09:35;1.90;99.90
8888;DHT22;4480;52.370;9.748;2024-01-15T07:12:02;1.90;99.90
8888;DHT22;4480;52.370;9.748;2024-01-15T07:14:29;2.00;99.90
8888;DHT22;4480;52.370;9.748;2024-01-15T07:16:55;2.00;99.90
8888;DHT22;4480;52.370;9.748;2024-01-15T07:19:22;2.00;99.90
8888;DHT22;4480;52.370;9.748;2024-01-15T07:21:50;2.00;99.90
8888;DHT22;4480;52.370;9.748;2024-01-15T07:24:17;2.00;99.90
8888;DHT22;4480;52.370;9.748;2024-01-15T07:26:44;1.90;99.90
8888;DHT22;4480;52.370;9.748;2024-01-15T07:29:11;1.80;99.90
8888;DHT22;4480;52.370;9.748;2024-01-15T07:31:37;1.70;99.90
8888;DHT22;4480;52.370;9.748;2024-01-15T07:34:04;1.70;99.90
8888;DHT22;4480;52.370;9.748;2024-01-15T07:36:31;1.70;99.90
8888;DHT22;4480;52.370;9.748;2024-01-15T07:38:59;1.60;99.90
8888;DHT22;4480;52.370;9.748;2024-01-15T07:41:26;1.60;99.90
8888;DHT22;4480;52.370;9.748;2024-01-15T07:43:53;1.60;99.90
8888;DHT22;4480;52.370;9.748;2024-01-15T07:46:20;1.70;99.90
8888;DHT22;4480;52.370;9.748;2024-01-15T07:48:46;1.70;99.90
8888;DHT22;4480;52.370;9.748;2024-01-15T07:51:13;1.60;99.90
8888;DHT22;4480;52.370;9.748;2024-01-15T07:53:40;1.60;99.90
8888;DHT22;4480;52.370;9.748;2024-01-15T07:56:08;1.60;99.90
8888;DHT22;4480;52.370;9.748;2024-01-15T07:58:35;1.60;99.90
8888;DHT22;4480;52.370;9.748;2024-01-15T08:01:02;1.60;99.90
8888;DHT22;4480;52.370;9.748;2024-01-15T08:03:28;1.50;99.90
8888;DHT22;4480;52.370;9.748;2024-01-15T08:05:55;1.50;99.90
8888;DHT22;4480;52.370;9.748;2024-01-15T08:08:24;1.50;99.90
8888;DHT22;4480;52.370;9.748;2024-01-15T08:10:52;1.50;99.90
8888;DHT22;4480;52.370;9.748;2024-01-15T08:13:20;1.50;99.90
8888;DHT22;4480;52.370;9.748;2024-01-15T08:15:47;1.40;99.90
8888;DHT22;4480;52.370;9.748;2024-01-15T08:18:13;1.40;99.90
8888;DHT22;4480;52.370;9.748;2024-01-15T08:20:40;1.40;99.90
8888;DHT22;4480;52.370;9.748;2024-01-15T08:23:08;1.30;99.90
8888;DHT22;4480;52.370;9.748;2024-01-15T08:25:35;1.20;99.90
8888;DHT22;4480;52.370;9.748;2024-01-15T08:28:02;1.20;99.90
8888;DHT22;4480;52.370;9.748;2024-01-15T08:30:30;1.10;99.90
8888;DHT22;4480;52.370;9.748;2024-01-15T08:32:57;1.20;99.90
8888;DHT22;4480;52.370;9.748;2024-01-15T08:35:24;1.20;99.90
8888;DHT22;4480;52.370;9.748;2024-01-15T08:37:52;1.20;99.90
8888;DHT22;4480;52.370;9.748;2024-01-15T08:40:18;1.20;99.90
8888;DHT22;4480;52.370;9.748;2024-01-15T08:42:45;1.30;99.90
8888;DHT22;4480;52.370;9.748;2024-01-15T08:45:12;1.30;99.90
8888;DHT22;4480;52.370;9.748;2024-01-15T08:47:40;1.40;99.90
8888;DHT22;4480;52.370;9.748;2024-01-15T08:50:07;1.40;99.90
8888;DHT22;4480;52.370;9.748;2024-01-15T08:52:35;1.50;99.90
8888;DHT22;4480;52.370;9.748;2024-01-15T08:55:03;1.50;99.90
8888;DHT22;4480;52.370;9.748;2024-01-15T08:57:29;1.60;99.90
8888;DHT22;4480;52.370;9.748;2024-01-15T08:59:56;1.70;99.90
8888;DHT22;4480;52.370;9.748;2024-01-15T09:02:24;1.90;99.90
8888;DHT22;4480;52.370;9.748;2024-01-15T09:04:52;1.90;99.90
8888;DHT22;4480;52.370;9.748;2024-01-15T09:07:18;2.00;99.90
8888;DHT22;4480;52.370;9.748;2024-01-15T09:09:45;2.00;99.90
8888;DHT22;4480;52.370;9.748;2024-01-15T09:12:12;2.00;99.90
8888;DHT22;4480;52.370;9.748;2024-01-15T09:14:41;2.00;99.90
8888;DHT22;4480;52.370;9.748;2024-01-15T09:17:07;2.00;99.90
8888;DHT22;4480;52.370;9.748;2024-01-15T09:19:34;2.00;99.90
8888;DHT22;4480;52.370;9.748;2024-01-15T09:22:03;2.00;99.90
8888;DHT22;4480;52.370;9.748;2024-01-15T09:24:29;2.00;99.90
8888;DHT22;4480;52.370;9.748;2024-01-15T09:26:56;2.00;99.90
8888;DHT22;4480;52.370;9.748;2024-01-15T09:29:23;2.00;99.90
8888;DHT22;4480;52.370;9.748;2024-01-15T09:31:50;2.10;99.90
8888;DHT22;4480;52.370;9.748;2024-01-15T09:34:17;2.10;99.90
8888;DHT22;4480;52.370;9.748;2024-01-15T09:36:44;2.10;99.90
8888;DHT22;4480;52.370;9.748;2024-01-15T09:39:12;2.20;99.90
8888;DHT22;4480;52.370;9.748;2024-01-15T09:41:41;2.20;99.90
8888;DHT22;4480;52.370;9.748;2024-01-15T09:44:08;2.20;99.90
8888;DHT22;4480;52.370;9.748;2024-01-15T09:46:37;2.30;99.90
8888;DHT22;4480;52.370;9.748;2024-01-15T09:49:04;2.30;99.90
8888;DHT22;4480;52.370;9.748;2024-01-15T09:51:31;2.30;99.90
8888;DHT22;4480;52.370;9.748;2024-01-15T09:53:58;2.40;99.90
8888;DHT22;4480;52.370;9.748;2024-01-15T09:56:27;2.40;99.90
8888;DHT22;4480;52.370;9.748;2024-01-15T09:58:54;2.40;99.90
8888;DHT22;4480;52.370;9.748;2024-01-15T10:01:23;2.40;99.90
8888;DHT22;4480;52.370;9.748;2024-01-15T10:03:51;2.30;99.90
8888;DHT22;4480;52.370;9.748;2024-01-15T10:06:18;2.40;99.90
8888;DHT22;4480;52.370;9.748;2024-01-15T10:08:48;2.30;99.90
8888;DHT22;4480;52.370;9.748;2024-01-15T10:11:15;2.30;99.90
8888;DHT22;4480;52.370;9.748;2024-01-15T10:13:44;2.30;99.90
8888;DHT22;4480;52.370;9.748;2024-01-15T10:16:10;2.20;99.90
8888;DHT22;4480;52.370;9.748;2024-01-15T10:18:37;2.20;99.90
8888;DHT22;4480;52.370;9.748;2024-01-15T10:21:06;2.20;99.90
8888;DHT22;4480;52.370;9.748;2024-01-15T10:23:33;2.20;99.90
8888;DHT22;4480;52.370;9.748;2024-01-15T10:26:01;2.10;99.90
8888;DHT22;4480;52.370;9.748;2024-01-15T10:28:29;2.10;99.90
8888;DHT22;4480;52.370;9.748;2024-01-15T10:30:59;2.20;99.90
8888;DHT22;4480;52.370;9.748;2024-01-15T10:33:26;2.30;99.90
8888;DHT22;4480;52.370;9.748;2024-01-15T10:35:54;2.30;99.90
8888;DHT22;4480;52.370;9.748;2024-01-15T10:38:22;2.40;99.90
8888;DHT22;4480;52.370;9.748;2024-01-15T10:40:51;2.50;99.90
8888;DHT22;4480;52.370;9.748;2024-01-15T10:43:18;2.60;99.90
8888;DHT22;4480;52.370;9.748;2024-01-15T10:45:46;2.70;99.90
8888;DHT22;4480;52.370;9.748;2024-01-15T10:48:17;2.70;99.90
8888;DHT22;4480;52.370;9.748;2024-01-15T10:50:44;2.80;99.90
8888;DHT22;4480;52.370;9.748;2024-01-15T10:53:11;2.80;99.90
8888;DHT22;4480;52.370;9.748;2024-01-15T10:55:39;2.80;99.90
8888;DHT22;4480;52.370;9.748;2024-01-15T10:58:08;2.80;99.90
8888;DHT22;4480;52.370;9.748;2024-01-15T11:00:35;2.70;99.90
8888;DHT22;4480;52.370;9.748;2024-01-15T11:03:05;2.60;99.90
8888;DHT22;4480;52.370;9.748;2024-01-15T11:05:37;2.60;99.90
8888;DHT22;4480;52.370;9.748;2024-01-15T11:08:05;2.60;99.90
8888;DHT22;4480;52.370;9.748;2024-01-15T11:10:39;2.60;99.90
8888;DHT22;4480;52.370;9.748;2024-01-15T11:13:09;2.60;99.90
8888;DHT22;4480;52.370;9.748;2024-01-15T11:16:00;2.70;99.90
8888;DHT22;4480;52.370;9.748;2024-01-15T11:18:28;2.70;99.90
8888;DHT22;4480;52.370;9.748;2024-01-15T11:21:24;2.90;99.90
8888;DHT22;4480;52.370;9.748;2024-01-15T11:23:54;3.00;99.90
8888;DHT22;4480;52.370;9.748;2024-01-15T11:26:30;3.10;99.90
8888;DHT22;4480;52.370;9.748;2024-01-15T11:28:56;3.10;99.90
8888;DHT22;4480;52.370;9.748;2024-01-15T11:31:27;3.20;99.90
8888;DHT22;4480;52.370;9.748;2024-01-15T11:33:54;3.20;99.90
8888;DHT22;4480;52.370;9.748;2024-01-15T11:36:21;3.20;99.90
8888;DHT22;4480;52.370;9.748;2024-01-15T11:38:49;3.30;99.90
8888;DHT22;4480;52.370;9.748;2024-01-15T11:41:16;3.30;99.90
8888;DHT22;4480;52.370;9.748;2024-01-15T11:43:43;3.30;99.90
8888;DHT22;4480;52.370;9.748;2024-01-15T11:46:11;3.40;99.90
8888;DHT22;4480;52.370;9.748;2024-01-15T11:48:43;3.40;99.90
8888;DHT22;4480;52.370;9.748;2024-01-15T11:51:11;3.30;99.90
8888;DHT22;4480;52.370;9.748;2024-01-15T11:53:43;3.30;99.90
8888;DHT22;4480;52.370;9.748;2024-01-15T11:56:17;3.20;99.90
8888;DHT22;4480;52.370;9.748;2024-01-15T11:58:44;3.20;99.90
8888;DHT22;4480;52.370;9.748;2024-01-15T12:01:11;3.20;99.90
8888;DHT22;4480;52.370;9.748;2024-01-15T12:03:38;3.20;99.90
8888;DHT22;4480;52.370;9.748;2024-01-15T12:06:06;3.20;99.90
8888;DHT22;4480;52.370;9.748;2024-01-15T12:08:33;3.20;99.90
8888;DHT22;4480;52.370;9.748;2024-01-15T12:11:00;3.20;99.90
8888;DHT22;4480;52.370;9.748;2024-01-15T12:13:29;3.20;99.90
8888;DHT22;4480;52.370;9.748;2024-01-15T12:15:55;3.10;99.90
8888;DHT22;4480;52.370;9.748;2024-01-15T12:18:22;3.10;99.90
8888;DHT22;4480;52.370;9.748;2024-01-15T12:20:49;3.10;99.90
8888;DHT22;4480;52.370;9.748;2024-01-15T12:23:15;3.00;99.90
8888;DHT22;4480;52.370;9.748;2024-01-15T12:25:43;3.00;99.90
8888;DHT22;4480;52.370;9.748;2024-01-15T12:28:10;3.00;99.90
8888;DHT22;4480;52.370;9.748;2024-01-15T12:30:39;3.00;99.90
8888;DHT22;4480;52.370;9.748;2024-01-15T12:33:07;3.00;99.90
8888;DHT22;4480;52.370;9.748;2024-01-15T12:35:34;3.10;99.90
8888;DHT22;4480;52.370;9.748;2024-01-15T12:38:02;3.20;99.90
8888;DHT22;4480;52.370;9.748;2024-01-15T12:40:29;3.30;99.90
8888;DHT22;4480;52.370;9.748;2024-01-15T12:42:55;3.40;99.90
8888;DHT22;4480;52.370;9.748;2024-01-15T12:45:24;3.40;99.90
8888;DHT22;4480;52.370;9.748;2024-01-15T12:47:52;3.40;99.90
8888;DHT22;4480;52.370;9.748;2024-01-15T12:50:24;3.40;99.90
8888;DHT22;4480;52.370;9.748;2024-01-15T12:52:51;3.40;99.90
8888;DHT22;4480;52.370;9.748;2024-01-15T12:55:18;3.40;99.90
8888;DHT22;4480;52.370;9.748;2024-01-15T12:57:45;3.30;99.90
8888;DHT22;4480;52.370;9.748;2024-01-15T13:00:13;3.30;99.90
8888;DHT22;4480;52.370;9.748;2024-01-15T13:02:40;3.30;99.90
8888;DHT22;4480;52.370;9.748;2024-01-15T13:05:09;3.20;99.90
8888;DHT22;4480;52.370;9.748;2024-01-15T13:07:36;3.20;99.90
8888;DHT22;4480;52.370;9.748;2024-01-15T13:10:03;3.10;99.90
8888;DHT22;4480;52.370;9.748;2024-01-15T13:12:30;3.10;99.90
8888;DHT22;4480;52.370;9.748;2024-01-15T13:14:58;3.10;99.90
8888;DHT22;4480;52.370;9.748;2024-01-15T13:17:25;3.10;99.90
8888;DHT22;4480;52.370;9.748;2024-01-15T13:19:52;3.10;99.90
8888;DHT22;4480;52.370;9.748;2024-01-15T13:22:20;3.00;99.90
8888;DHT22;4480;52.370;9.748;2024-01-15T13:24:46;3.00;99.90
8888;DHT22;4480;52.370;9.748;2024-01-15T13:27:13;3.00;99.90
8888;DHT22;4480;52.370;9.748;2024-01-15T13:29:40;3.00;99.90
8888;DHT22;4480;52.370;9.748;2024-01-15T13:32:07;2.90;99.90
8888;DHT22;4480;52.370;9.748;2024-01-15T13:34:35;2.90;99.90
8888;DHT22;4480;52.370;9.748;2024-01-15T13:37:02;2.90;99.90
8888;DHT22;4480;52.370;9.748;2024-01-15T13:39:30;2.90;99.90
8888;DHT22;4480;52.370;9.748;2024-01-15T13:41:58;2.90;99.90
8888;DHT22;4480;52.370;9.748;2024-01-15T13:44:25;2.90;99.90
8888;DHT22;4480;52.370;9.748;2024-01-15T13:46:53;2.80;99.90
8888;DHT22;4480;52.370;9.748;2024-01-15T13:49:20;2.80;99.90
8888;DHT22;4480;52.370;9.748;2024-01-15T13:51:46;2.70;99.90
8888;DHT22;4480;52.370;9.748;2024-01-15T13:54:13;2.60;99.90
8888;DHT22;4480;52.370;9.748;2024-01-15T13:56:41;2.50;99.90
8888;DHT22;4480;52.370;9.748;2024-01-15T13:59:08;2.40;99.90
8888;DHT22;4480;52.370;9.748;2024-01-15T14:01:35;2.40;99.90
8888;DHT22;4480;52.370;9.748;2024-01-15T14:04:02;2.30;99.90
8888;DHT22;4480;52.370;9.748;2024-01-15T14:06:28;2.20;99.90
8888;DHT22;4480;52.370;9.748;2024-01-15T14:08:55;2.10;99.90
8888;DHT22;4480;52.370;9.748;2024-01-15T14:11:22;2.00;99.90
8888;DHT22;4480;52.370;9.748;2024-01-15T14:13:50;1.90;99.90
8888;DHT22;4480;52.370;9.748;2024-01-15T14:16:17;1.70;99.90
8888;DHT22;4480;52.370;9.748;2024-01-15T14:18:44;1.70;99.90
8888;DHT22;4480;52.370;9.748;2024-01-15T14:21:11;1.70;99.90
8888;DHT22;4480;52.370;9.748;2024-01-15T14:23:38;1.60;99.90
8888;DHT22;4480;52.370;9.748;2024-01-15T14:26:05;1.60;99.90
8888;DHT22;4480;52.370;9.748;2024-01-15T14:28:31;1.60;99.90
8888;DHT22;4480;52.370;9.748;2024-01-15T14:31:00;1.60;99.90
8888;DHT22;4480;52.370;9.748;2024-01-15T14:33:27;1.60;99.90
8888;DHT22;4480;52.370;9.748;2024-01-15T14:35:53;1.60;99.90
8888;DHT22;4480;52.370;9.748;2024-01-15T14:38:20;1.60;99.90
8888;DHT22;4480;52.370;9.748;2024-01-15T14:40:47;1.60;99.90
8888;DHT22;4480;52.370;9.748;2024-01-15T14:43:14;1.50;99.90
8888;DHT22;4480;52.370;9.748;2024-01-15T14:45:41;1.40;99.90
8888;DHT22;4480;52.370;9.748;2024-01-15T14:48:10;1.40;99.90
8888;DHT22;4480;52.370;9.748;2024-01-15T14:50:38;1.30;99.90
8888;DHT22;4480;52.370;9.748;2024-01-15T14:53:05;1.30;99.90
8888;DHT22;4480;52.370;9.748;2024-01-15T14:55:32;1.30;99.90
8888;DHT22;4480;52.370;9.748;2024-01-15T14:57:59;1.30;99.90
8888;DHT22;4480;52.370;9.748;2024-01-15T15:00:26;1.30;99.90
8888;DHT22;4480;52.370;9.748;2024-01-15T15:02:52;1.40;99.90
8888;DHT22;4480;52.370;9.748;2024-01-15T15:05:20;1.40;99.90
8888;DHT22;4480;52.370;9.748;2024-01-15T15:07:47;1.40;99.90
8888;DHT22;4480;52.370;9.748;2024-01-15T15:10:14;1.40;99.90
8888;DHT22;4480;52.370;9.748;2024-01-15T15:12:41;1.40;99.90
8888;DHT22;4480;52.370;9.748;2024-01-15T15:15:08;1.40;99.90
8888;DHT22;4480;52.370;9.748;2024-01-15T15:17:36;1.40;99.90
8888;DHT22;4480;52.370;9.748;2024-01-15T15:20:04;1.30;99.90
8888;DHT22;4480;52.370;9.748;2024-01-15T15:22:33;1.30;99.90
8888;DHT22;4480;52.370;9.748;2024-01-15T15:25:00;1.30;99.90
8888;DHT22;4480;52.370;9.748;2024-01-15T15:27:26;1.30;99.90
8888;DHT22;4480;52.370;9.748;2024-01-15T15:29:54;1.30;99.90
8888;DHT22;4480;52.370;9.748;2024-01-15T15:32:21;1.30;99.90
8888;DHT22;4480;52.370;9.748;2024-01-15T15:34:47;1.30;99.90
8888;DHT22;4480;52.370;9.748;2024-01-15T15:37:14;1.30;99.90
8888;DHT22;4480;52.370;9.748;2024-01-15T15:39:43;1.30;99.90
8888;DHT22;4480;52.370;9.748;2024-01-15T15:42:10;1.30;99.90
8888;DHT22;4480;52.370;9.748;2024-01-15T15:44:39;1.30;99.90
8888;DHT22;4480;52.370;9.748;2024-01-15T15:47:11;1.30;99.90
8888;DHT22;4480;52.370;9.748;2024-01-15T15:49:38;1.40;99.90
8888;DHT22;4480;52.370;9.748;2024-01-15T15:52:05;1.40;99.90
8888;DHT22;4480;52.370;9.748;2024-01-15T15:54:32;1.40;99.90
8888;DHT22;4480;52.370;9.748;2024-01-15T15:57:00;1.40;99.90
8888;DHT22;4480;52.370;9.748;2024-01-15T15:59:26;1.40;99.90
8888;DHT22;4480;52.370;9.748;2024-01-15T16:01:53;1.30;99.90
8888;DHT22;4480;52.370;9.748;2024-01-15T16:04:20;1.30;99.90
8888;DHT22;4480;52.370;9.748;2024-01-15T16:06:47;1.30;99.90
8888;DHT22;4480;52.370;9.748;2024-01-15T16:09:14;1.30;99.90
8888;DHT22;4480;52.370;9.748;2024-01-15T16:11:40;1.10;99.90
8888;DHT22;4480;52.370;9.748;2024-01-15T16:14:09;1.10;99.90
8888;DHT22;4480;52.370;9.748;2024-01-15T16:16:36;1.00;99.90
8888;DHT22;4480;52.370;9.748;2024-01-15T16:19:03;1.00;99.90